METAR Data
IDs: Format: Raw Decoded Include TAF

Data at: 1329 UTC 10 Aug 2022

KRAL 101253Z AUTO 00000KT 10SM CLR 22/13 A2998 RMK AO2 SLP135 T02220133
KRAL 101153Z AUTO 00000KT 10SM CLR 22/13 A2998 RMK AO2 SLP133 T02220133 10267 20222 57004
KRAL 101053Z AUTO 00000KT 10SM CLR 23/13 A2998 RMK AO2 SLP134 T02280133
KRAL 100953Z AUTO 00000KT 10SM CLR 23/14 A2998 RMK AO2 SLP134 T02330139
KRAL 100853Z AUTO 27003KT 10SM CLR 23/13 A2999 RMK AO2 SLP136 T02330128 51003
KRAL 100753Z AUTO 28004KT 10SM CLR 24/13 A2999 RMK AO2 SLP136 T02390133 403830228
KRAL 100653Z AUTO 00000KT 10SM CLR 26/12 A2999 RMK AO2 SLP137 T02560122
KRAL 100553Z AUTO 28004KT 10SM CLR 27/12 A2998 RMK AO2 SLP134 T02670117 10350 20267 51023
KRAL 100453Z AUTO 00000KT 10SM CLR 28/11 A2997 RMK AO2 SLP131 T02780106
KRAL 100353Z 29004KT 10SM CLR 29/09 A2994 RMK AO2 SLP120 T02890089
KRAL 100253Z VRB03KT 10SM CLR 31/08 A2991 RMK AO2 SLP111 T03060078 53014
KRAL 100153Z 28008KT 10SM CLR 33/03 A2988 RMK AO2 SLP101 T03280033
KRAL 100053Z 27018G23KT 10SM CLR 34/06 A2987 RMK AO2 SLP096 T03440056
KRAL 092353Z 27019G26KT 10SM CLR 35/09 A2987 RMK AO2 PK WND 27026/2345 SLP096 T03500089 10383 20322 55011
KRAL 092253Z 28015G24KT 10SM CLR 36/13 A2987 RMK AO2 SLP095 T03610133
KRAL 092153Z 28013G20KT 10SM CLR 37/14 A2988 RMK AO2 SLP099 T03720139
KRAL 092053Z VRB05KT 10SM CLR 37/09 A2990 RMK AO2 SLP107 T03720094 58020
KRAL 091953Z VRB06KT 10SM CLR 37/11 A2992 RMK AO2 SLP114 T03670106
KRAL 091853Z 22006KT 10SM CLR 34/10 A2994 RMK AO2 SLP121 T03390100
KRAL 091753Z 00000KT 10SM CLR 32/11 A2996 RMK AO2 SLP127 T03170111 10317 20228 50001
KRAL 091653Z 26004KT 10SM CLR 29/13 A2996 RMK AO2 SLP129 T02890128
KRAL 091553Z 00000KT 10SM CLR 27/14 A2997 RMK AO2 SLP131 T02720144
KRAL 091453Z 00000KT 10SM CLR 24/15 A2996 RMK AO2 SLP127 T02440150 53012
KRAL 091353Z 00000KT 10SM CLR 23/14 A2995 RMK AO2 SLP123 T02330144
KRAL 091253Z AUTO 00000KT 10SM CLR 23/15 A2993 RMK AO2 SLP118 T02330150
KRAL 091153Z AUTO 00000KT 10SM CLR 23/15 A2992 RMK AO2 SLP115 T02330150 10267 20233 55001
KRAL 091053Z AUTO 00000KT 10SM CLR 24/15 A2992 RMK AO2 SLP113 T02390150
KRAL 090953Z AUTO 00000KT 10SM CLR 24/14 A2993 RMK AO2 SLP115 T02440144
KRAL 090853Z AUTO 00000KT 10SM CLR 25/13 A2993 RMK AO2 SLP115 T02500133 58006
KRAL 090753Z AUTO 00000KT 10SM CLR 26/13 A2994 RMK AO2 SLP121 T02560133 403720217
KRAL 090653Z AUTO 27004KT 10SM CLR 26/13 A2995 RMK AO2 SLP123 T02610128
KRAL 090553Z AUTO 27003KT 10SM CLR 27/13 A2995 RMK AO2 SLP123 T02670128 10350 20267 51017
KRAL 090453Z AUTO 27006KT 10SM CLR 28/13 A2994 RMK AO2 SLP121 T02780133
KRAL 090353Z AUTO 27006KT 10SM CLR 29/12 A2992 RMK AO2 SLP114 T02890122
KRAL 090253Z 28005KT 10SM CLR 31/11 A2989 RMK AO2 SLP105 T03110111 53010
KRAL 090153Z 28006KT 10SM CLR 32/12 A2986 RMK AO2 SLP095 T03220117